Time;durP1;ratioP1;P1;durP2;ratioP2;P2;SDS_P1;SDS_P2;PMS_P1;PMS_P2;Temp;Humidity;BMP_temperature;BMP_pressure;BME280_temperature;BME280_humidity;BME280_pressure;Samples;Min_cycle;Max_cycle;Signal;HPM_P1;HPM_P2
2021/11/07 00:00:39;;;;;;;5.57;4.87;;;8.90;99.90;;;;;;5006593;28;20730;-71
2021/11/07 00:03:11;;;;;;;4.93;4.33;;;8.90;99.90;;;;;;5006554;28;20774;-71
2021/11/07 00:05:42;;;;;;;7.10;5.07;;;8.90;99.90;;;;;;5006719;28;20228;-71
2021/11/07 00:08:27;;;;;;;5.67;4.67;;;8.90;99.90;;;;;;5006833;28;20568;-71
2021/11/07 00:10:57;;;;;;;5.40;4.90;;;8.90;99.90;;;;;;5006826;28;20197;-71
2021/11/07 00:13:25;;;;;;;5.47;5.00;;;8.90;99.90;;;;;;5006213;28;20656;-71
2021/11/07 00:15:54;;;;;;;5.00;4.50;;;8.90;99.90;;;;;;5006356;28;20675;-71
2021/11/07 00:18:24;;;;;;;6.23;5.63;;;8.90;99.90;;;;;;5006086;28;20300;-71
2021/11/07 00:20:55;;;;;;;4.97;4.57;;;8.90;99.90;;;;;;5006445;28;20212;-71
2021/11/07 00:26:12;;;;;;;5.07;4.57;;;9.00;99.90;;;;;;5005972;27;20213;-71
2021/11/07 00:28:42;;;;;;;5.07;4.67;;;8.90;99.90;;;;;;5006123;28;20836;-71
2021/11/07 00:31:20;;;;;;;5.53;5.03;;;8.90;99.90;;;;;;5006571;28;20194;-71
2021/11/07 00:36:31;;;;;;;5.20;4.70;;;8.90;99.90;;;;;;5005906;28;20205;-71
2021/11/07 00:39:08;;;;;;;5.23;4.73;;;8.90;99.90;;;;;;5006368;28;20234;-71
2021/11/07 00:41:40;;;;;;;5.30;4.80;;;8.80;99.90;;;;;;5006449;28;20198;-71
2021/11/07 00:44:09;;;;;;;5.10;4.60;;;8.90;99.90;;;;;;5006331;28;20280;-71
2021/11/07 00:46:42;;;;;;;5.00;4.60;;;8.90;99.90;;;;;;5006247;28;20237;-71
2021/11/07 00:49:11;;;;;;;6.50;4.53;;;8.90;99.90;;;;;;5006239;28;20233;-71
2021/11/07 00:51:44;;;;;;;4.93;4.53;;;8.90;99.90;;;;;;5005177;28;20233;-71
2021/11/07 00:54:17;;;;;;;5.00;4.60;;;8.90;99.90;;;;;;5006208;28;20208;-71
2021/11/07 00:56:46;;;;;;;4.90;4.50;;;8.90;99.90;;;;;;5006342;28;20197;-71
2021/11/07 00:59:21;;;;;;;6.07;4.70;;;8.90;99.90;;;;;;5005709;28;20282;-71
2021/11/07 01:01:53;;;;;;;5.40;4.20;;;8.80;99.90;;;;;;5006255;28;20201;-71
2021/11/07 01:04:21;;;;;;;4.83;4.43;;;8.80;99.90;;;;;;5006166;28;20205;-71
2021/11/07 01:06:48;;;;;;;4.47;4.17;;;8.80;99.90;;;;;;5006078;28;20518;-71
2021/11/07 01:09:15;;;;;;;4.67;4.23;;;8.80;99.90;;;;;;5005819;28;20320;-71
2021/11/07 01:11:42;;;;;;;5.03;4.63;;;8.80;99.90;;;;;;5006267;28;20266;-71
2021/11/07 01:14:11;;;;;;;4.93;4.53;;;8.80;99.90;;;;;;5005802;28;20251;-71
2021/11/07 01:16:39;;;;;;;7.40;4.60;;;8.80;99.90;;;;;;5006095;28;20244;-71
2021/11/07 01:19:07;;;;;;;5.23;4.50;;;8.80;99.90;;;;;;5005441;28;20338;-71
2021/11/07 01:21:37;;;;;;;5.23;4.70;;;8.70;99.90;;;;;;5005682;28;20225;-71
2021/11/07 01:24:07;;;;;;;4.97;4.50;;;8.70;99.90;;;;;;5005641;28;20190;-71
2021/11/07 01:26:36;;;;;;;6.47;4.80;;;8.70;99.90;;;;;;5005752;28;20728;-71
2021/11/07 01:29:10;;;;;;;4.77;4.47;;;8.70;99.90;;;;;;5005468;28;20229;-71
2021/11/07 01:31:37;;;;;;;5.00;4.67;;;8.60;99.90;;;;;;5005559;28;20194;-71
2021/11/07 01:34:05;;;;;;;5.10;4.70;;;8.60;99.90;;;;;;5005588;28;20213;-71
2021/11/07 01:36:39;;;;;;;5.30;4.70;;;8.60;99.90;;;;;;5005642;28;20212;-71
2021/11/07 01:39:12;;;;;;;6.10;4.73;;;8.70;99.90;;;;;;5005376;28;20225;-71
2021/11/07 01:41:47;;;;;;;5.03;4.53;;;8.70;99.90;;;;;;5005844;28;20306;-71
2021/11/07 01:44:14;;;;;;;4.90;4.60;;;8.70;99.90;;;;;;5005478;28;20199;-71
2021/11/07 01:46:45;;;;;;;5.33;4.83;;;8.70;99.90;;;;;;5005474;28;20209;-71
2021/11/07 01:49:16;;;;;;;5.77;5.27;;;8.70;99.90;;;;;;5005165;28;20244;-71
2021/11/07 01:51:48;;;;;;;6.43;4.60;;;8.70;99.90;;;;;;5005571;28;20255;-71
2021/11/07 01:54:24;;;;;;;5.47;4.97;;;8.70;99.90;;;;;;5005411;28;20201;-71
2021/11/07 01:56:51;;;;;;;4.93;4.53;;;8.70;99.90;;;;;;5005333;28;20193;-71
2021/11/07 01:59:18;;;;;;;4.93;4.60;;;8.70;99.90;;;;;;5005290;28;20225;-71
2021/11/07 02:01:45;;;;;;;5.43;4.73;;;8.70;99.90;;;;;;5005631;28;20197;-71
2021/11/07 02:04:12;;;;;;;5.07;4.57;;;8.70;99.90;;;;;;5008816;28;20300;-71
2021/11/07 02:06:39;;;;;;;5.63;4.73;;;8.80;99.90;;;;;;5008836;28;20244;-71
2021/11/07 02:09:07;;;;;;;5.30;4.20;;;8.80;99.90;;;;;;5008374;28;20242;-71
2021/11/07 02:11:33;;;;;;;4.73;4.33;;;8.80;99.90;;;;;;5008773;28;20209;-71
2021/11/07 02:14:01;;;;;;;5.53;4.80;;;8.80;99.90;;;;;;5008264;28;20270;-71
2021/11/07 02:16:28;;;;;;;4.83;4.43;;;8.80;99.90;;;;;;5008414;28;20250;-71
2021/11/07 02:18:55;;;;;;;6.53;4.67;;;8.80;99.90;;;;;;5008520;28;20205;-71
2021/11/07 02:21:23;;;;;;;5.57;5.17;;;8.70;99.90;;;;;;5008609;28;20229;-71
2021/11/07 02:23:50;;;;;;;6.80;4.50;;;8.70;99.90;;;;;;5008503;28;20210;-71
2021/11/07 02:26:17;;;;;;;4.97;4.43;;;8.70;99.90;;;;;;5008564;28;20206;-71
2021/11/07 02:28:46;;;;;;;4.80;4.50;;;8.80;99.90;;;;;;5008251;28;20205;-71
2021/11/07 02:31:16;;;;;;;4.90;4.50;;;8.80;99.90;;;;;;5008368;28;20201;-71
2021/11/07 02:33:44;;;;;;;4.70;4.17;;;8.80;99.90;;;;;;5008266;28;20217;-71
2021/11/07 02:36:13;;;;;;;4.50;4.20;;;8.80;99.90;;;;;;5007865;28;20938;-71
2021/11/07 02:38:42;;;;;;;4.53;4.13;;;8.80;99.90;;;;;;5008208;28;20282;-71
2021/11/07 02:41:10;;;;;;;4.60;4.30;;;8.90;99.90;;;;;;5008335;28;20254;-71
2021/11/07 02:43:41;;;;;;;4.93;4.40;;;8.90;99.90;;;;;;5008138;28;20209;-71
2021/11/07 02:46:10;;;;;;;5.40;4.63;;;8.90;99.90;;;;;;5007983;28;20209;-71
2021/11/07 02:48:37;;;;;;;6.37;5.53;;;8.90;99.90;;;;;;5007982;28;20209;-71
2021/11/07 02:51:03;;;;;;;4.40;4.10;;;8.90;99.90;;;;;;5007908;28;20241;-71
2021/11/07 02:53:30;;;;;;;5.07;4.67;;;8.90;99.90;;;;;;5008131;28;20221;-71
2021/11/07 02:55:58;;;;;;;5.00;4.50;;;8.90;99.90;;;;;;5007991;28;20210;-71
2021/11/07 02:58:24;;;;;;;5.00;4.60;;;8.90;99.90;;;;;;5007485;28;20271;-71
2021/11/07 03:00:52;;;;;;;4.63;4.13;;;9.00;99.90;;;;;;5007650;28;20240;-71
2021/11/07 03:03:18;;;;;;;4.67;4.27;;;9.00;99.90;;;;;;5007747;28;20229;-71
2021/11/07 03:05:45;;;;;;;4.63;4.33;;;9.00;99.90;;;;;;5007491;28;20209;-71
2021/11/07 03:08:12;;;;;;;6.60;4.33;;;9.00;99.90;;;;;;5007413;28;20683;-71
2021/11/07 03:10:38;;;;;;;4.30;3.90;;;9.00;99.90;;;;;;5007899;28;20233;-71
2021/11/07 03:13:09;;;;;;;4.40;4.00;;;9.00;99.90;;;;;;5007027;28;20259;-71
2021/11/07 03:15:39;;;;;;;4.77;4.27;;;9.10;99.90;;;;;;5007306;28;20236;-71
2021/11/07 03:18:06;;;;;;;4.67;4.27;;;9.00;99.90;;;;;;5007662;28;20213;-71
2021/11/07 03:20:33;;;;;;;4.43;4.00;;;9.00;99.90;;;;;;5007227;28;20763;-71
2021/11/07 03:23:00;;;;;;;4.53;4.10;;;9.00;99.90;;;;;;5007189;28;20736;-71
2021/11/07 03:25:26;;;;;;;5.03;4.33;;;9.00;99.90;;;;;;5007454;28;20253;-71
2021/11/07 03:27:54;;;;;;;5.73;4.00;;;9.00;99.90;;;;;;5007949;28;20202;-71
2021/11/07 03:30:37;;;;;;;4.77;4.37;;;9.00;99.90;;;;;;5007140;28;20237;-71
2021/11/07 03:33:13;;;;;;;4.27;3.87;;;9.00;99.90;;;;;;5006946;28;20735;-71
2021/11/07 03:35:41;;;;;;;3.70;3.50;;;9.00;99.90;;;;;;5007298;28;20193;-71
2021/11/07 03:38:09;;;;;;;4.07;3.77;;;9.10;99.90;;;;;;5007277;28;20221;-71
2021/11/07 03:40:36;;;;;;;4.07;3.77;;;9.00;99.90;;;;;;5007085;28;20275;-71
2021/11/07 03:43:03;;;;;;;4.77;3.70;;;9.10;99.90;;;;;;5007280;28;20259;-71
2021/11/07 03:45:31;;;;;;;5.83;4.00;;;9.10;99.90;;;;;;5007207;28;20245;-71
2021/11/07 03:47:58;;;;;;;4.17;3.87;;;9.00;99.90;;;;;;5006971;28;20208;-71
2021/11/07 03:50:27;;;;;;;3.70;3.40;;;9.00;99.90;;;;;;5007158;28;20229;-71
2021/11/07 03:52:53;;;;;;;6.20;4.13;;;9.00;99.90;;;;;;5007078;28;20214;-71
2021/11/07 03:55:20;;;;;;;4.43;4.13;;;9.00;99.90;;;;;;5006687;28;20248;-71
2021/11/07 03:57:47;;;;;;;4.40;4.00;;;9.00;99.90;;;;;;5006616;28;20828;-71
2021/11/07 04:00:15;;;;;;;3.67;3.37;;;9.00;99.90;;;;;;5005906;28;20256;-71
2021/11/07 04:02:44;;;;;;;4.03;3.77;;;9.00;99.90;;;;;;5006521;28;20225;-71
2021/11/07 04:05:12;;;;;;;4.10;3.80;;;9.00;99.90;;;;;;5006596;28;20225;-71
2021/11/07 04:07:39;;;;;;;4.40;3.80;;;8.90;99.90;;;;;;5006949;28;20202;-71
2021/11/07 04:10:08;;;;;;;4.47;4.07;;;8.90;99.90;;;;;;5006787;28;20709;-71
2021/11/07 04:12:35;;;;;;;4.10;3.70;;;8.90;99.90;;;;;;5006933;28;20617;-71
2021/11/07 04:15:02;;;;;;;3.90;3.60;;;8.90;99.90;;;;;;5006687;28;20244;-70
2021/11/07 04:17:29;;;;;;;3.73;3.43;;;8.90;99.90;;;;;;5006785;28;20210;-71
2021/11/07 04:19:57;;;;;;;4.27;3.87;;;9.00;99.90;;;;;;5006557;28;20278;-70
2021/11/07 04:22:24;;;;;;;3.77;3.50;;;9.00;99.90;;;;;;5006421;28;20214;-70
2021/11/07 04:24:51;;;;;;;3.77;3.47;;;8.90;99.90;;;;;;5005144;28;20214;-70
2021/11/07 04:27:18;;;;;;;4.17;3.87;;;9.00;99.90;;;;;;5003113;28;20209;-70
2021/11/07 04:29:44;;;;;;;3.73;3.53;;;9.00;99.90;;;;;;5005033;28;20229;-70
2021/11/07 04:32:11;;;;;;;3.77;3.47;;;9.00;99.90;;;;;;5006627;28;20217;-70
2021/11/07 04:34:37;;;;;;;4.67;3.73;;;9.00;99.90;;;;;;5006731;28;20246;-70
2021/11/07 04:37:06;;;;;;;4.87;4.17;;;9.00;99.90;;;;;;5006263;28;20638;-71
2021/11/07 04:39:33;;;;;;;3.83;3.47;;;8.90;99.90;;;;;;5006298;28;20274;-71
2021/11/07 04:42:00;;;;;;;4.20;3.50;;;8.90;99.90;;;;;;5006409;28;20241;-71
2021/11/07 04:44:27;;;;;;;4.37;3.97;;;9.00;99.90;;;;;;5006320;28;20206;-71
2021/11/07 04:46:54;;;;;;;4.00;3.60;;;8.90;99.90;;;;;;5006272;28;20202;-71
2021/11/07 04:49:21;;;;;;;4.10;3.77;;;9.00;99.90;;;;;;5006193;28;20209;-71
2021/11/07 04:51:48;;;;;;;4.23;3.83;;;9.00;99.90;;;;;;5006221;28;20265;-71
2021/11/07 04:54:16;;;;;;;4.13;3.70;;;9.00;99.90;;;;;;5006133;28;20504;-71
2021/11/07 04:56:43;;;;;;;3.93;3.63;;;9.10;99.90;;;;;;5006108;28;20576;-71
2021/11/07 04:59:10;;;;;;;3.53;3.30;;;9.10;99.90;;;;;;5006123;28;20265;-71
2021/11/07 05:01:37;;;;;;;3.47;3.27;;;9.10;99.90;;;;;;5005875;28;20245;-71
2021/11/07 05:04:04;;;;;;;3.57;3.37;;;9.10;99.90;;;;;;5006015;28;20231;-71
2021/11/07 05:06:31;;;;;;;3.60;3.30;;;9.20;99.90;;;;;;5006086;28;20205;-71
2021/11/07 05:08:58;;;;;;;3.50;3.20;;;9.20;99.90;;;;;;5006064;28;20213;-71
2021/11/07 05:11:26;;;;;;;3.60;3.30;;;9.20;99.90;;;;;;5005953;28;20259;-72
2021/11/07 05:13:53;;;;;;;3.60;3.30;;;9.30;99.90;;;;;;5006118;28;20237;-71
2021/11/07 05:16:20;;;;;;;3.40;3.13;;;9.30;99.90;;;;;;5005879;28;20229;-71
2021/11/07 05:18:46;;;;;;;4.00;3.63;;;9.30;99.90;;;;;;5006258;28;20271;-71
2021/11/07 05:21:13;;;;;;;4.00;3.60;;;9.30;99.90;;;;;;5005852;28;20294;-71
2021/11/07 05:23:40;;;;;;;3.87;3.53;;;9.30;99.90;;;;;;5006038;28;20301;-71
2021/11/07 05:26:07;;;;;;;5.47;3.20;;;9.30;99.90;;;;;;5005609;28;20260;-71
2021/11/07 05:28:35;;;;;;;3.83;3.53;;;9.30;99.90;;;;;;5005645;28;20212;-71
2021/11/07 05:31:02;;;;;;;3.17;2.97;;;9.30;99.90;;;;;;5005432;28;20240;-71
2021/11/07 05:33:31;;;;;;;3.37;3.00;;;9.30;99.90;;;;;;5006117;28;20205;-71
2021/11/07 05:35:58;;;;;;;4.00;3.60;;;9.30;99.90;;;;;;5005927;28;20226;-71
2021/11/07 05:38:24;;;;;;;3.73;3.03;;;9.30;99.90;;;;;;5008295;28;20681;-71
2021/11/07 05:40:51;;;;;;;3.30;3.10;;;9.30;99.90;;;;;;5009028;28;20217;-71
2021/11/07 05:43:21;;;;;;;3.87;3.17;;;9.30;99.90;;;;;;5009245;28;20301;-71
2021/11/07 05:45:49;;;;;;;3.40;3.20;;;9.30;99.90;;;;;;5009078;28;20213;-71
2021/11/07 05:48:17;;;;;;;3.67;3.37;;;9.30;99.90;;;;;;5008869;28;20681;-71
2021/11/07 05:50:44;;;;;;;3.50;3.27;;;9.30;99.90;;;;;;5008959;28;20268;-71
2021/11/07 05:53:10;;;;;;;3.83;3.53;;;9.30;99.90;;;;;;5008873;28;20236;-71
2021/11/07 05:55:37;;;;;;;3.83;3.33;;;9.30;99.90;;;;;;5008852;28;20612;-71
2021/11/07 05:58:04;;;;;;;3.77;3.47;;;9.30;99.90;;;;;;5008498;28;20261;-72
2021/11/07 06:00:31;;;;;;;3.80;3.57;;;9.30;99.90;;;;;;5008318;28;20281;-71
2021/11/07 06:03:00;;;;;;;5.20;3.43;;;9.30;99.90;;;;;;5008661;28;20213;-71
2021/11/07 06:05:27;;;;;;;4.10;3.70;;;9.20;99.90;;;;;;5008937;28;20210;-71
2021/11/07 06:07:54;;;;;;;3.63;3.30;;;9.40;99.90;;;;;;5008435;28;20206;-71
2021/11/07 06:10:21;;;;;;;3.83;3.63;;;9.40;99.90;;;;;;5008930;28;20229;-72
2021/11/07 06:12:48;;;;;;;3.40;3.20;;;9.40;99.90;;;;;;5008899;28;20205;-72
2021/11/07 06:15:15;;;;;;;4.23;3.50;;;9.40;99.90;;;;;;5008569;28;20688;-71
2021/11/07 06:17:41;;;;;;;3.30;3.00;;;9.40;99.90;;;;;;5008752;28;20243;-72
2021/11/07 06:20:10;;;;;;;5.17;3.70;;;9.40;99.90;;;;;;5008387;28;20278;-72
2021/11/07 06:22:37;;;;;;;3.87;3.60;;;9.40;99.90;;;;;;5008521;28;20261;-71
2021/11/07 06:25:05;;;;;;;3.50;3.20;;;9.40;99.90;;;;;;5008226;28;20577;-72
2021/11/07 06:27:33;;;;;;;3.83;3.53;;;9.30;99.90;;;;;;5008581;28;20201;-72
2021/11/07 06:30:00;;;;;;;3.80;3.33;;;9.30;99.90;;;;;;5008227;28;20237;-72
2021/11/07 06:32:27;;;;;;;3.63;3.37;;;9.30;99.90;;;;;;5008400;28;20258;-71
2021/11/07 06:34:53;;;;;;;3.27;3.07;;;9.30;99.90;;;;;;5008491;28;20364;-72
2021/11/07 06:37:21;;;;;;;3.83;3.43;;;9.20;99.90;;;;;;5008269;28;20287;-71
2021/11/07 06:39:49;;;;;;;4.20;3.80;;;9.20;99.90;;;;;;5008239;28;20205;-72
2021/11/07 06:42:16;;;;;;;4.20;3.80;;;9.10;99.90;;;;;;5007764;28;20758;-72
2021/11/07 06:44:43;;;;;;;4.13;3.83;;;9.10;99.90;;;;;;5008142;28;20774;-71
2021/11/07 06:47:09;;;;;;;3.80;3.50;;;9.10;99.90;;;;;;5008021;28;20209;-71
2021/11/07 06:49:36;;;;;;;3.83;3.53;;;9.10;99.90;;;;;;5006843;28;20221;-72
2021/11/07 06:52:03;;;;;;;4.50;4.10;;;9.10;99.90;;;;;;5007557;28;20602;-72
2021/11/07 06:54:31;;;;;;;4.57;3.57;;;9.10;99.90;;;;;;5008060;28;20259;-71
2021/11/07 06:56:58;;;;;;;3.90;3.50;;;9.20;99.90;;;;;;5008142;28;20290;-71
2021/11/07 06:59:25;;;;;;;3.10;2.90;;;9.20;99.90;;;;;;5007467;28;20260;-72
2021/11/07 07:01:52;;;;;;;4.90;3.20;;;9.10;99.90;;;;;;5008036;28;20226;-72
2021/11/07 07:04:19;;;;;;;4.00;3.70;;;9.20;99.90;;;;;;5007874;28;20212;-72
2021/11/07 07:06:45;;;;;;;3.43;3.17;;;9.10;99.90;;;;;;5007984;28;20266;-71
2021/11/07 07:09:14;;;;;;;3.80;3.50;;;9.20;99.90;;;;;;5007824;28;20206;-71
2021/11/07 07:11:44;;;;;;;3.20;3.00;;;9.20;99.90;;;;;;5007841;28;20239;-71
2021/11/07 07:14:14;;;;;;;3.93;3.27;;;9.20;99.90;;;;;;5007727;28;20213;-72
2021/11/07 07:16:47;;;;;;;3.60;3.30;;;9.20;99.90;;;;;;5007405;28;20209;-71
2021/11/07 07:19:37;;;;;;;3.43;3.13;;;9.30;99.90;;;;;;5007466;28;20234;-71
2021/11/07 07:22:18;;;;;;;3.07;2.87;;;9.30;99.90;;;;;;5007702;28;20202;-71
2021/11/07 07:25:00;;;;;;;3.47;3.17;;;9.30;99.90;;;;;;5007843;28;20201;-72
2021/11/07 07:30:26;;;;;;;3.00;2.80;;;9.30;99.90;;;;;;5007098;28;20262;-71
2021/11/07 07:33:00;;;;;;;3.07;2.87;;;9.30;99.90;;;;;;5007644;28;20193;-71
2021/11/07 07:35:27;;;;;;;3.80;3.50;;;9.30;99.90;;;;;;5007560;28;20362;-71
2021/11/07 07:37:55;;;;;;;3.20;3.00;;;9.30;99.90;;;;;;5007546;28;20220;-71
2021/11/07 07:40:22;;;;;;;3.03;2.80;;;9.20;99.90;;;;;;5007257;28;20236;-72
2021/11/07 07:42:50;;;;;;;3.70;3.30;;;9.20;99.90;;;;;;5007458;28;20209;-72
2021/11/07 07:45:17;;;;;;;3.20;3.00;;;9.10;99.90;;;;;;5007204;28;20205;-71
2021/11/07 07:47:44;;;;;;;3.77;3.47;;;9.10;99.90;;;;;;5007331;28;20216;-72
2021/11/07 07:50:12;;;;;;;3.50;3.20;;;9.10;99.90;;;;;;5007069;28;20236;-72
2021/11/07 07:52:39;;;;;;;3.30;3.00;;;9.10;99.90;;;;;;5007224;28;20279;-72
2021/11/07 07:55:08;;;;;;;3.47;3.10;;;9.10;99.90;;;;;;5006891;28;20201;-72
2021/11/07 07:57:34;;;;;;;3.10;2.80;;;9.10;99.90;;;;;;5007100;28;20225;-71
2021/11/07 08:00:04;;;;;;;3.13;2.93;;;9.10;99.90;;;;;;5006053;28;20269;-72
2021/11/07 08:02:31;;;;;;;3.07;2.87;;;9.10;99.90;;;;;;5006998;28;20241;-72
2021/11/07 08:04:57;;;;;;;3.10;2.90;;;9.20;99.90;;;;;;5007011;28;20252;-71
2021/11/07 08:07:25;;;;;;;3.40;3.10;;;9.20;99.90;;;;;;5006768;28;20274;-71
2021/11/07 08:09:52;;;;;;;3.50;3.20;;;9.20;99.90;;;;;;5006982;28;20216;-72
2021/11/07 08:12:19;;;;;;;4.13;3.33;;;9.20;99.90;;;;;;5006870;28;20264;-71
2021/11/07 08:14:46;;;;;;;4.13;3.07;;;9.20;99.90;;;;;;5006808;28;20233;-71
2021/11/07 08:17:14;;;;;;;4.57;4.17;;;9.20;99.90;;;;;;5006669;28;20244;-72
2021/11/07 08:19:41;;;;;;;3.77;3.47;;;9.20;99.90;;;;;;5006430;28;20912;-72
2021/11/07 08:22:08;;;;;;;2.80;2.60;;;9.30;99.90;;;;;;5006848;28;20205;-71
2021/11/07 08:24:35;;;;;;;3.33;3.13;;;9.30;99.90;;;;;;5006780;28;20214;-71
2021/11/07 08:27:02;;;;;;;2.97;2.77;;;9.40;99.90;;;;;;5006726;28;20266;-71
2021/11/07 08:29:29;;;;;;;2.70;2.50;;;9.40;99.90;;;;;;5006580;28;20210;-71
2021/11/07 08:31:58;;;;;;;2.43;2.33;;;9.50;99.90;;;;;;5006694;28;20517;-72
2021/11/07 08:34:28;;;;;;;3.23;2.50;;;9.50;99.90;;;;;;5006180;28;20697;-72
2021/11/07 08:36:59;;;;;;;3.07;2.50;;;9.50;99.90;;;;;;5006421;28;20290;-71
2021/11/07 08:39:28;;;;;;;2.80;2.60;;;9.50;99.90;;;;;;5006612;28;20198;-72
2021/11/07 08:41:59;;;;;;;2.60;2.40;;;9.50;99.90;;;;;;5006612;28;20210;-71
2021/11/07 09:00:59;;;;;;;2.30;2.10;;;9.90;99.90;;;;;;5005385;28;20314;-72
2021/11/07 09:03:43;;;;;;;2.13;2.03;;;9.90;99.90;;;;;;5006045;28;20198;-72
2021/11/07 09:09:12;;;;;;;3.20;2.10;;;10.00;99.90;;;;;;4944420;28;20192;-71
2021/11/07 09:11:48;;;;;;;2.87;2.33;;;10.10;99.90;;;;;;4991647;27;20290;-72
2021/11/07 09:14:15;;;;;;;2.47;2.27;;;10.10;99.90;;;;;;5005810;28;20296;-72
2021/11/07 09:16:42;;;;;;;2.60;2.10;;;10.10;99.90;;;;;;5006138;28;20213;-71
2021/11/07 09:19:10;;;;;;;2.20;2.10;;;10.10;99.90;;;;;;5005324;28;20591;-71
2021/11/07 09:21:39;;;;;;;1.60;1.50;;;10.10;99.90;;;;;;5006077;28;20221;-72
2021/11/07 09:24:11;;;;;;;3.17;1.80;;;10.20;99.90;;;;;;5005698;28;20220;-71
2021/11/07 09:26:41;;;;;;;2.07;1.87;;;10.20;99.90;;;;;;5005791;28;20297;-72
2021/11/07 09:29:11;;;;;;;2.17;1.80;;;10.20;99.90;;;;;;5005509;28;20194;-72
2021/11/07 09:31:45;;;;;;;4.73;2.03;;;10.20;99.90;;;;;;5005709;28;20229;-72
2021/11/07 09:34:21;;;;;;;2.93;1.80;;;10.30;99.90;;;;;;5005670;28;20196;-71
2021/11/07 09:36:54;;;;;;;2.60;1.50;;;10.30;99.90;;;;;;5005777;28;20292;-72
2021/11/07 09:39:29;;;;;;;1.50;1.37;;;10.40;99.90;;;;;;5005724;28;20271;-72
2021/11/07 09:44:40;;;;;;;2.03;1.93;;;10.50;99.90;;;;;;5008964;28;20233;-72
2021/11/07 09:47:08;;;;;;;4.70;1.80;;;10.50;99.90;;;;;;5005297;28;20210;-71
2021/11/07 09:49:44;;;;;;;1.83;1.73;;;10.50;99.90;;;;;;5005701;28;20209;-72
2021/11/07 09:52:16;;;;;;;4.10;2.27;;;10.50;99.90;;;;;;5005339;28;20232;-72
2021/11/07 09:54:45;;;;;;;2.07;1.97;;;10.40;99.90;;;;;;5005554;28;20289;-71
2021/11/07 09:57:16;;;;;;;1.70;1.60;;;10.40;99.90;;;;;;5004979;28;20233;-72
2021/11/07 09:59:42;;;;;;;2.53;1.70;;;10.40;99.90;;;;;;5005366;28;20242;-72
2021/11/07 10:02:09;;;;;;;3.23;1.87;;;10.40;99.90;;;;;;5005442;28;20213;-72
2021/11/07 10:04:37;;;;;;;2.93;1.83;;;10.50;99.90;;;;;;5005623;28;20214;-72
2021/11/07 10:07:17;;;;;;;2.97;1.60;;;10.50;99.90;;;;;;5005296;28;20410;-72
2021/11/07 10:09:44;;;;;;;1.97;1.60;;;10.60;99.90;;;;;;5005358;28;20194;-71
2021/11/07 10:12:15;;;;;;;3.47;1.73;;;10.70;99.90;;;;;;5005048;28;20237;-72
2021/11/07 10:14:46;;;;;;;3.23;1.90;;;11.00;99.90;;;;;;5005620;28;20189;-72
2021/11/07 10:17:31;;;;;;;4.20;2.03;;;11.10;99.90;;;;;;5005082;28;20293;-72
2021/11/07 10:20:05;;;;;;;2.73;1.63;;;11.30;99.90;;;;;;5004979;28;20723;-72
2021/11/07 10:22:34;;;;;;;4.97;4.23;;;11.30;99.90;;;;;;5005316;28;20200;-72
2021/11/07 10:25:01;;;;;;;4.23;2.50;;;11.30;99.90;;;;;;5008666;28;20201;-72
2021/11/07 10:27:29;;;;;;;3.37;1.40;;;11.20;99.90;;;;;;5008494;28;20262;-72
2021/11/07 10:30:07;;;;;;;2.07;1.27;;;11.10;99.90;;;;;;5008497;28;20216;-72
2021/11/07 10:32:43;;;;;;;3.03;1.83;;;11.10;99.90;;;;;;5008556;28;20225;-72
2021/11/07 10:35:29;;;;;;;3.60;1.70;;;11.00;99.90;;;;;;5008386;28;20222;-72
2021/11/07 10:38:15;;;;;;;2.43;1.40;;;10.90;99.90;;;;;;5008069;28;20205;-72
2021/11/07 10:40:58;;;;;;;3.10;1.80;;;10.90;99.90;;;;;;5008431;28;20233;-72
2021/11/07 10:43:53;;;;;;;2.73;1.50;;;10.90;99.90;;;;;;5008438;28;20274;-72
2021/11/07 10:46:55;;;;;;;4.07;1.53;;;10.80;99.90;;;;;;5008227;28;20201;-72
2021/11/07 10:52:19;;;;;;;4.03;1.60;;;10.60;99.90;;;;;;5007741;28;20592;-72
2021/11/07 10:54:47;;;;;;;2.83;1.80;;;10.30;99.90;;;;;;5008276;28;20275;-72
2021/11/07 10:57:20;;;;;;;2.73;1.60;;;10.10;99.90;;;;;;5007767;28;20226;-72
2021/11/07 11:00:24;;;;;;;3.03;2.00;;;9.90;99.90;;;;;;5007327;28;20273;-72
2021/11/07 11:02:52;;;;;;;3.70;1.73;;;9.70;99.90;;;;;;5007662;28;20198;-72
2021/11/07 11:05:22;;;;;;;2.87;1.97;;;9.60;99.90;;;;;;5008097;28;20214;-72
2021/11/07 11:07:55;;;;;;;3.43;2.13;;;9.50;99.90;;;;;;5007991;28;20228;-72
2021/11/07 11:10:29;;;;;;;2.20;2.00;;;9.30;99.90;;;;;;5007976;28;20202;-72
2021/11/07 11:13:10;;;;;;;1.20;1.00;;;9.30;99.90;;;;;;5007850;28;20229;-72
2021/11/07 11:15:44;;;;;;;2.00;1.10;;;8.90;99.90;;;;;;5007867;28;20288;-72
2021/11/07 11:18:22;;;;;;;3.00;1.20;;;8.80;99.90;;;;;;5007553;28;20352;-72
2021/11/07 11:21:20;;;;;;;3.17;1.10;;;8.60;99.90;;;;;;5007814;28;20201;-72
2021/11/07 11:23:58;;;;;;;2.43;1.03;;;8.50;99.90;;;;;;5008027;28;20198;-72
2021/11/07 11:26:40;;;;;;;5.67;1.90;;;8.30;99.90;;;;;;5007629;28;20219;-72
2021/11/07 11:29:22;;;;;;;1.57;1.03;;;8.40;99.90;;;;;;5007220;28;20201;-72
2021/11/07 11:31:55;;;;;;;2.30;1.20;;;8.40;99.90;;;;;;5007489;28;20225;-72
2021/11/07 11:34:26;;;;;;;2.87;1.20;;;8.40;99.90;;;;;;5006752;28;20257;-72
2021/11/07 11:36:58;;;;;;;3.77;1.20;;;8.40;99.90;;;;;;5007573;28;20194;-72
2021/11/07 11:39:29;;;;;;;3.23;1.43;;;8.40;99.90;;;;;;5007445;28;20198;-72
2021/11/07 11:42:02;;;;;;;2.37;1.40;;;8.50;99.90;;;;;;5007527;28;20286;-72
2021/11/07 11:44:29;;;;;;;4.43;1.20;;;8.50;99.90;;;;;;5007371;28;20288;-72
2021/11/07 11:47:13;;;;;;;4.93;1.50;;;8.60;99.90;;;;;;5007388;28;20217;-72
2021/11/07 11:49:57;;;;;;;3.70;1.50;;;8.70;99.90;;;;;;5007243;28;20198;-72
2021/11/07 11:52:42;;;;;;;4.33;1.43;;;8.70;99.90;;;;;;5006851;28;20641;-72
2021/11/07 11:55:25;;;;;;;4.47;1.67;;;8.70;99.90;;;;;;5007152;28;20233;-72
2021/11/07 11:58:01;;;;;;;3.73;1.80;;;8.70;99.90;;;;;;5007164;28;20225;-72
2021/11/07 12:03:34;;;;;;;7.30;2.50;;;8.80;99.90;;;;;;5006224;28;20562;-72
2021/11/07 12:06:05;;;;;;;4.20;2.67;;;8.90;99.90;;;;;;5007071;28;20198;-72
2021/11/07 12:08:37;;;;;;;8.40;2.87;;;9.00;99.90;;;;;;5006869;28;20666;-72
2021/11/07 12:11:27;;;;;;;4.33;2.40;;;9.10;99.90;;;;;;5006516;28;20640;-72
2021/11/07 12:14:05;;;;;;;4.40;2.53;;;9.20;99.90;;;;;;5006909;28;20247;-72
2021/11/07 12:16:49;;;;;;;3.37;2.37;;;9.30;99.90;;;;;;5006486;28;20644;-72
2021/11/07 12:19:18;;;;;;;3.17;2.10;;;9.40;99.90;;;;;;5006479;28;20264;-72
2021/11/07 12:21:57;;;;;;;4.87;2.40;;;9.40;99.90;;;;;;5006604;28;20213;-72
2021/11/07 12:24:26;;;;;;;3.77;2.20;;;9.40;99.90;;;;;;5006473;28;20251;-72
2021/11/07 12:26:53;;;;;;;2.80;1.97;;;9.30;99.90;;;;;;5006905;28;20249;-72
2021/11/07 12:29:37;;;;;;;3.87;2.60;;;9.30;99.90;;;;;;5006410;28;20290;-72
2021/11/07 12:32:07;;;;;;;2.90;2.20;;;9.40;99.90;;;;;;5006426;28;20198;-72
2021/11/07 12:34:58;;;;;;;5.80;2.17;;;9.40;99.90;;;;;;5006588;28;20231;-72
2021/11/07 12:40:37;;;;;;;3.00;1.83;;;9.50;99.90;;;;;;5006396;28;20193;-72
2021/11/07 12:43:06;;;;;;;3.87;2.20;;;9.60;99.90;;;;;;5006355;28;20190;-72
2021/11/07 12:45:39;;;;;;;4.53;1.90;;;9.70;99.90;;;;;;5006306;28;20201;-72
2021/11/07 12:48:08;;;;;;;3.67;2.20;;;9.70;99.90;;;;;;5006151;28;20291;-72
2021/11/07 12:50:53;;;;;;;5.13;1.83;;;9.90;99.90;;;;;;5006391;28;20205;-72
2021/11/07 12:53:20;;;;;;;3.13;1.60;;;10.10;99.90;;;;;;5006413;28;20224;-72
2021/11/07 12:55:47;;;;;;;6.90;2.97;;;10.00;99.90;;;;;;5006023;28;20225;-72
2021/11/07 12:58:14;;;;;;;8.43;4.33;;;10.00;99.90;;;;;;5005585;28;20988;-72
2021/11/07 13:00:43;;;;;;;7.57;3.20;;;9.80;99.90;;;;;;5005583;28;20320;-72
2021/11/07 13:03:12;;;;;;;6.17;3.00;;;10.00;99.90;;;;;;5005501;28;20787;-72
2021/11/07 13:05:41;;;;;;;2.90;1.70;;;10.10;99.90;;;;;;5005951;28;20205;-72
2021/11/07 13:08:11;;;;;;;5.37;1.90;;;10.00;99.90;;;;;;5005354;28;20202;-72
2021/11/07 13:10:46;;;;;;;4.97;2.30;;;9.90;99.90;;;;;;5005819;28;20280;-72
2021/11/07 13:13:21;;;;;;;6.37;1.60;;;9.90;99.90;;;;;;5005577;28;20233;-72
2021/11/07 13:15:59;;;;;;;6.37;2.03;;;9.90;99.90;;;;;;5005718;28;20201;-72
2021/11/07 13:18:37;;;;;;;4.30;1.83;;;9.80;99.90;;;;;;5005224;28;20320;-72
2021/11/07 13:21:18;;;;;;;4.93;1.83;;;9.70;99.90;;;;;;5005567;28;20202;-72
2021/11/07 13:24:06;;;;;;;5.83;1.70;;;9.70;99.90;;;;;;5005657;28;20205;-72
2021/11/07 13:26:43;;;;;;;3.33;1.67;;;9.70;99.90;;;;;;5005603;28;20286;-71
2021/11/07 13:32:29;;;;;;;6.10;2.10;;;9.60;99.90;;;;;;5005367;28;20204;-71
2021/11/07 13:35:05;;;;;;;7.57;2.00;;;9.70;99.90;;;;;;5005584;28;20255;-72
2021/11/07 13:37:37;;;;;;;3.20;1.90;;;9.70;99.90;;;;;;5005560;28;20598;-71
2021/11/07 13:40:07;;;;;;;6.03;2.20;;;9.70;99.90;;;;;;5005599;28;20707;-71
2021/11/07 13:42:38;;;;;;;2.90;1.73;;;9.70;99.90;;;;;;5005374;28;20648;-71
2021/11/07 13:45:08;;;;;;;6.03;2.03;;;9.70;99.90;;;;;;5005213;28;20731;-71
2021/11/07 13:47:39;;;;;;;10.80;2.30;;;9.60;99.90;;;;;;5005734;28;20284;-72
2021/11/07 13:50:08;;;;;;;5.03;1.80;;;9.60;99.90;;;;;;5005648;28;20198;-71
2021/11/07 13:52:37;;;;;;;6.57;1.77;;;9.50;99.90;;;;;;5005495;28;20269;-72
2021/11/07 13:55:14;;;;;;;6.30;2.10;;;9.50;99.90;;;;;;5005134;28;20202;-72